Terminal Aerodrome Forecast
Issued by NWS

Home | Current Version | Previous Version | Text Only | Print | Product List | Glossary On
Versions: 1 2 3 4 5 6 7 8 9 10 11 12 13 14 15 16
000
FTUS43 KIND 291727
TAFBMG
TAF
KBMG 291727Z 2918/3018 04006KT P6SM VCSH SCT025 BKN040
     FM292100 02006KT P6SM SCT030 BKN045
     FM300000 03004KT P6SM VCSH SCT035 BKN060
     FM300300 VRB03KT P6SM BKN060 PROB30 3003/3007 4SM -SHRA OVC007
     FM300700 VRB03KT P6SM BKN008 PROB30 3007/3010 4SM -SHRA OVC003
     FM301000 01004KT 3SM -SHRA OVC008
     FM301200 VRB03KT 3SM SHRA OVC008
     FM301600 14005KT P6SM SHRA OVC030=

USA.gov is the U.S. government's official web portal to all federal, state and local government web resources and services.